Аэропорт: Михайловка. Барнаул

ICAO: UNBB

METAR:
2019/03/26 13:00
UNBB 261300Z 09003MPS CAVOK M00/M06 Q1027 R06/CLRD60 NOSIG RMK QFE748
METAR:
2019/03/26 12:21
TAF UNBB 261100Z 2612/2712 14003G08MPS 9999 SCT020 
      TEMPO 2612/2615 08006MPS 
      TEMPO 2615/2703 3100 BR FU SCT002 BKN011 
     FM270300 18006G11MPS 9999 BKN017CB 
      TEMPO 2703/2712 24007G12MPS 3100 -SHRASN SCT005 BKN011CB